sensor_id;sensor_type;location;lat;lon;timestamp;P1;durP1;ratioP1;P2;durP2;ratioP2
78840;SDS011;68379;47.190;27.558;2024-01-25T00:01:23;16.70;;;8.20;;
78840;SDS011;68379;47.190;27.558;2024-01-25T00:03:57;17.10;;;8.40;;
78840;SDS011;68379;47.190;27.558;2024-01-25T00:06:30;16.80;;;7.40;;
78840;SDS011;68379;47.190;27.558;2024-01-25T00:09:02;13.10;;;7.20;;
78840;SDS011;68379;47.190;27.558;2024-01-25T00:11:34;16.30;;;7.00;;
78840;SDS011;68379;47.190;27.558;2024-01-25T00:14:11;12.30;;;6.40;;
78840;SDS011;68379;47.190;27.558;2024-01-25T00:16:43;16.30;;;7.20;;
78840;SDS011;68379;47.190;27.558;2024-01-25T00:19:19;17.60;;;7.30;;
78840;SDS011;68379;47.190;27.558;2024-01-25T00:21:51;17.70;;;7.80;;
78840;SDS011;68379;47.190;27.558;2024-01-25T00:24:25;13.20;;;6.70;;
78840;SDS011;68379;47.190;27.558;2024-01-25T00:26:59;13.50;;;6.60;;
78840;SDS011;68379;47.190;27.558;2024-01-25T00:29:31;14.50;;;6.30;;
78840;SDS011;68379;47.190;27.558;2024-01-25T00:32:04;13.80;;;7.40;;
78840;SDS011;68379;47.190;27.558;2024-01-25T00:34:37;18.00;;;7.30;;
78840;SDS011;68379;47.190;27.558;2024-01-25T00:37:11;19.60;;;8.30;;
78840;SDS011;68379;47.190;27.558;2024-01-25T00:39:43;12.30;;;6.20;;
78840;SDS011;68379;47.190;27.558;2024-01-25T00:44:50;15.20;;;6.60;;
78840;SDS011;68379;47.190;27.558;2024-01-25T00:47:23;11.10;;;5.50;;
78840;SDS011;68379;47.190;27.558;2024-01-25T00:49:56;11.20;;;6.10;;
78840;SDS011;68379;47.190;27.558;2024-01-25T00:55:00;12.50;;;6.10;;
78840;SDS011;68379;47.190;27.558;2024-01-25T00:57:35;13.70;;;5.50;;
78840;SDS011;68379;47.190;27.558;2024-01-25T01:00:13;11.80;;;5.60;;
78840;SDS011;68379;47.190;27.558;2024-01-25T01:02:46;10.40;;;4.80;;
78840;SDS011;68379;47.190;27.558;2024-01-25T01:05:24;10.40;;;4.20;;
78840;SDS011;68379;47.190;27.558;2024-01-25T01:07:58;6.60;;;3.60;;
78840;SDS011;68379;47.190;27.558;2024-01-25T01:13:18;8.50;;;3.10;;
78840;SDS011;68379;47.190;27.558;2024-01-25T01:18:24;5.70;;;3.20;;
78840;SDS011;68379;47.190;27.558;2024-01-25T01:20:57;8.20;;;3.40;;
78840;SDS011;68379;47.190;27.558;2024-01-25T01:23:31;5.30;;;2.90;;
78840;SDS011;68379;47.190;27.558;2024-01-25T01:26:03;5.90;;;2.90;;
78840;SDS011;68379;47.190;27.558;2024-01-25T01:28:36;7.70;;;3.00;;
78840;SDS011;68379;47.190;27.558;2024-01-25T01:31:12;5.70;;;2.80;;
78840;SDS011;68379;47.190;27.558;2024-01-25T01:33:46;5.20;;;2.90;;
78840;SDS011;68379;47.190;27.558;2024-01-25T01:36:18;5.60;;;2.40;;
78840;SDS011;68379;47.190;27.558;2024-01-25T01:38:51;4.70;;;2.40;;
78840;SDS011;68379;47.190;27.558;2024-01-25T01:41:26;5.70;;;3.30;;
78840;SDS011;68379;47.190;27.558;2024-01-25T01:43:58;4.60;;;2.70;;
78840;SDS011;68379;47.190;27.558;2024-01-25T01:46:32;4.60;;;2.30;;
78840;SDS011;68379;47.190;27.558;2024-01-25T01:49:08;4.70;;;2.20;;
78840;SDS011;68379;47.190;27.558;2024-01-25T01:51:41;4.70;;;1.90;;
78840;SDS011;68379;47.190;27.558;2024-01-25T01:54:13;4.60;;;2.20;;
78840;SDS011;68379;47.190;27.558;2024-01-25T01:56:48;4.00;;;2.10;;
78840;SDS011;68379;47.190;27.558;2024-01-25T01:59:22;3.90;;;2.20;;
78840;SDS011;68379;47.190;27.558;2024-01-25T02:01:54;3.60;;;1.90;;
78840;SDS011;68379;47.190;27.558;2024-01-25T02:04:26;4.70;;;2.30;;
78840;SDS011;68379;47.190;27.558;2024-01-25T02:07:00;4.00;;;2.10;;
78840;SDS011;68379;47.190;27.558;2024-01-25T02:09:35;3.80;;;2.00;;
78840;SDS011;68379;47.190;27.558;2024-01-25T02:12:09;4.30;;;2.00;;
78840;SDS011;68379;47.190;27.558;2024-01-25T02:14:46;4.00;;;1.90;;
78840;SDS011;68379;47.190;27.558;2024-01-25T02:17:18;3.80;;;1.90;;
78840;SDS011;68379;47.190;27.558;2024-01-25T02:19:52;2.90;;;1.80;;
78840;SDS011;68379;47.190;27.558;2024-01-25T02:22:24;3.50;;;1.70;;
78840;SDS011;68379;47.190;27.558;2024-01-25T02:24:57;2.80;;;1.60;;
78840;SDS011;68379;47.190;27.558;2024-01-25T02:27:29;6.40;;;2.10;;
78840;SDS011;68379;47.190;27.558;2024-01-25T02:30:07;3.90;;;2.20;;
78840;SDS011;68379;47.190;27.558;2024-01-25T02:32:43;2.90;;;1.60;;
78840;SDS011;68379;47.190;27.558;2024-01-25T02:35:15;3.40;;;1.70;;
78840;SDS011;68379;47.190;27.558;2024-01-25T02:37:47;4.60;;;2.00;;
78840;SDS011;68379;47.190;27.558;2024-01-25T02:40:19;2.40;;;1.50;;
78840;SDS011;68379;47.190;27.558;2024-01-25T02:42:52;3.50;;;1.40;;
78840;SDS011;68379;47.190;27.558;2024-01-25T02:45:25;3.00;;;1.70;;
78840;SDS011;68379;47.190;27.558;2024-01-25T02:47:57;3.00;;;1.90;;
78840;SDS011;68379;47.190;27.558;2024-01-25T02:50:31;3.30;;;1.50;;
78840;SDS011;68379;47.190;27.558;2024-01-25T02:53:04;3.30;;;1.90;;
78840;SDS011;68379;47.190;27.558;2024-01-25T02:55:37;3.90;;;1.80;;
78840;SDS011;68379;47.190;27.558;2024-01-25T02:58:10;3.60;;;2.00;;
78840;SDS011;68379;47.190;27.558;2024-01-25T03:00:43;3.30;;;1.60;;
78840;SDS011;68379;47.190;27.558;2024-01-25T03:03:16;2.30;;;1.30;;
78840;SDS011;68379;47.190;27.558;2024-01-25T03:05:48;2.80;;;1.60;;
78840;SDS011;68379;47.190;27.558;2024-01-25T03:08:23;3.10;;;1.50;;
78840;SDS011;68379;47.190;27.558;2024-01-25T03:11:02;3.30;;;1.60;;
78840;SDS011;68379;47.190;27.558;2024-01-25T03:13:35;3.10;;;1.60;;
78840;SDS011;68379;47.190;27.558;2024-01-25T03:16:10;4.40;;;1.70;;
78840;SDS011;68379;47.190;27.558;2024-01-25T03:18:42;4.70;;;1.60;;
78840;SDS011;68379;47.190;27.558;2024-01-25T03:21:14;4.10;;;1.60;;
78840;SDS011;68379;47.190;27.558;2024-01-25T03:23:46;3.20;;;1.60;;
78840;SDS011;68379;47.190;27.558;2024-01-25T03:26:20;3.70;;;1.60;;
78840;SDS011;68379;47.190;27.558;2024-01-25T03:31:25;2.90;;;1.50;;
78840;SDS011;68379;47.190;27.558;2024-01-25T03:33:59;2.60;;;1.10;;
78840;SDS011;68379;47.190;27.558;2024-01-25T03:36:31;2.90;;;1.40;;
78840;SDS011;68379;47.190;27.558;2024-01-25T03:39:04;2.60;;;1.30;;
78840;SDS011;68379;47.190;27.558;2024-01-25T03:41:40;2.50;;;1.50;;
78840;SDS011;68379;47.190;27.558;2024-01-25T03:44:13;3.10;;;1.30;;
78840;SDS011;68379;47.190;27.558;2024-01-25T03:46:47;2.90;;;1.80;;
78840;SDS011;68379;47.190;27.558;2024-01-25T03:49:19;2.50;;;1.40;;
78840;SDS011;68379;47.190;27.558;2024-01-25T03:51:56;2.80;;;1.30;;
78840;SDS011;68379;47.190;27.558;2024-01-25T03:54:28;2.40;;;1.20;;
78840;SDS011;68379;47.190;27.558;2024-01-25T03:59:34;2.50;;;1.30;;
78840;SDS011;68379;47.190;27.558;2024-01-25T04:02:06;3.60;;;1.50;;
78840;SDS011;68379;47.190;27.558;2024-01-25T04:04:39;3.40;;;1.10;;
78840;SDS011;68379;47.190;27.558;2024-01-25T04:07:11;2.10;;;1.10;;
78840;SDS011;68379;47.190;27.558;2024-01-25T04:09:43;3.40;;;0.90;;
78840;SDS011;68379;47.190;27.558;2024-01-25T04:12:16;2.20;;;1.30;;
78840;SDS011;68379;47.190;27.558;2024-01-25T04:14:48;3.00;;;1.00;;
78840;SDS011;68379;47.190;27.558;2024-01-25T04:17:20;2.70;;;1.40;;
78840;SDS011;68379;47.190;27.558;2024-01-25T04:19:52;3.70;;;1.40;;
78840;SDS011;68379;47.190;27.558;2024-01-25T04:22:24;2.30;;;1.00;;
78840;SDS011;68379;47.190;27.558;2024-01-25T04:24:56;3.30;;;1.60;;
78840;SDS011;68379;47.190;27.558;2024-01-25T04:27:30;2.50;;;1.20;;
78840;SDS011;68379;47.190;27.558;2024-01-25T04:30:04;2.90;;;1.40;;
78840;SDS011;68379;47.190;27.558;2024-01-25T04:32:39;3.80;;;1.10;;
78840;SDS011;68379;47.190;27.558;2024-01-25T04:35:14;2.70;;;1.50;;
78840;SDS011;68379;47.190;27.558;2024-01-25T04:37:47;2.30;;;1.50;;
78840;SDS011;68379;47.190;27.558;2024-01-25T04:40:21;2.60;;;1.30;;
78840;SDS011;68379;47.190;27.558;2024-01-25T04:42:55;2.90;;;1.50;;
78840;SDS011;68379;47.190;27.558;2024-01-25T04:45:27;2.30;;;1.30;;
78840;SDS011;68379;47.190;27.558;2024-01-25T04:47:59;3.00;;;1.90;;
78840;SDS011;68379;47.190;27.558;2024-01-25T04:50:31;4.30;;;1.80;;
78840;SDS011;68379;47.190;27.558;2024-01-25T04:53:03;3.00;;;1.60;;
78840;SDS011;68379;47.190;27.558;2024-01-25T04:55:35;2.90;;;1.60;;
78840;SDS011;68379;47.190;27.558;2024-01-25T04:58:07;3.10;;;1.30;;
78840;SDS011;68379;47.190;27.558;2024-01-25T05:00:39;2.60;;;1.30;;
78840;SDS011;68379;47.190;27.558;2024-01-25T05:03:11;3.00;;;1.30;;
78840;SDS011;68379;47.190;27.558;2024-01-25T05:05:42;3.40;;;1.90;;
78840;SDS011;68379;47.190;27.558;2024-01-25T05:08:14;2.70;;;1.40;;
78840;SDS011;68379;47.190;27.558;2024-01-25T05:10:46;3.70;;;1.70;;
78840;SDS011;68379;47.190;27.558;2024-01-25T05:13:18;2.90;;;1.70;;
78840;SDS011;68379;47.190;27.558;2024-01-25T05:15:50;4.40;;;1.60;;
78840;SDS011;68379;47.190;27.558;2024-01-25T05:18:21;2.70;;;1.40;;
78840;SDS011;68379;47.190;27.558;2024-01-25T05:20:53;3.80;;;1.60;;
78840;SDS011;68379;47.190;27.558;2024-01-25T05:23:26;3.20;;;1.30;;
78840;SDS011;68379;47.190;27.558;2024-01-25T05:26:00;3.00;;;1.80;;
78840;SDS011;68379;47.190;27.558;2024-01-25T05:28:32;3.10;;;1.60;;
78840;SDS011;68379;47.190;27.558;2024-01-25T05:31:05;2.70;;;1.50;;
78840;SDS011;68379;47.190;27.558;2024-01-25T05:33:44;2.70;;;1.90;;
78840;SDS011;68379;47.190;27.558;2024-01-25T05:36:18;3.30;;;1.70;;
78840;SDS011;68379;47.190;27.558;2024-01-25T05:38:51;5.10;;;1.90;;
78840;SDS011;68379;47.190;27.558;2024-01-25T05:41:27;4.00;;;2.30;;
78840;SDS011;68379;47.190;27.558;2024-01-25T05:43:59;6.00;;;2.50;;
78840;SDS011;68379;47.190;27.558;2024-01-25T05:46:31;3.00;;;2.00;;
78840;SDS011;68379;47.190;27.558;2024-01-25T05:49:11;4.70;;;2.30;;
78840;SDS011;68379;47.190;27.558;2024-01-25T05:51:43;6.60;;;3.20;;
78840;SDS011;68379;47.190;27.558;2024-01-25T05:56:47;5.00;;;2.80;;
78840;SDS011;68379;47.190;27.558;2024-01-25T05:59:21;6.00;;;3.00;;
78840;SDS011;68379;47.190;27.558;2024-01-25T06:01:52;3.50;;;1.50;;
78840;SDS011;68379;47.190;27.558;2024-01-25T06:04:24;3.70;;;1.70;;
78840;SDS011;68379;47.190;27.558;2024-01-25T06:06:56;3.80;;;1.80;;
78840;SDS011;68379;47.190;27.558;2024-01-25T06:09:27;3.30;;;1.90;;
78840;SDS011;68379;47.190;27.558;2024-01-25T06:12:00;3.90;;;1.90;;
78840;SDS011;68379;47.190;27.558;2024-01-25T06:14:33;4.10;;;2.00;;
78840;SDS011;68379;47.190;27.558;2024-01-25T06:17:05;3.60;;;2.10;;
78840;SDS011;68379;47.190;27.558;2024-01-25T06:19:37;4.30;;;1.80;;
78840;SDS011;68379;47.190;27.558;2024-01-25T06:22:08;4.20;;;2.20;;
78840;SDS011;68379;47.190;27.558;2024-01-25T06:24:40;3.40;;;1.90;;
78840;SDS011;68379;47.190;27.558;2024-01-25T06:27:12;4.20;;;2.30;;
78840;SDS011;68379;47.190;27.558;2024-01-25T06:29:44;4.40;;;2.70;;
78840;SDS011;68379;47.190;27.558;2024-01-25T06:32:17;3.10;;;1.70;;
78840;SDS011;68379;47.190;27.558;2024-01-25T06:34:49;3.50;;;2.30;;
78840;SDS011;68379;47.190;27.558;2024-01-25T06:37:21;3.80;;;2.30;;
78840;SDS011;68379;47.190;27.558;2024-01-25T06:39:53;3.30;;;1.90;;
78840;SDS011;68379;47.190;27.558;2024-01-25T06:42:25;4.00;;;2.10;;
78840;SDS011;68379;47.190;27.558;2024-01-25T06:44:57;3.10;;;2.00;;
78840;SDS011;68379;47.190;27.558;2024-01-25T06:47:33;3.50;;;1.90;;
78840;SDS011;68379;47.190;27.558;2024-01-25T06:50:07;6.80;;;2.40;;
78840;SDS011;68379;47.190;27.558;2024-01-25T06:52:40;15.50;;;3.30;;
78840;SDS011;68379;47.190;27.558;2024-01-25T06:55:15;4.70;;;2.50;;
78840;SDS011;68379;47.190;27.558;2024-01-25T06:57:47;4.40;;;2.20;;
78840;SDS011;68379;47.190;27.558;2024-01-25T07:00:19;4.00;;;2.40;;
78840;SDS011;68379;47.190;27.558;2024-01-25T07:02:51;5.20;;;2.80;;
78840;SDS011;68379;47.190;27.558;2024-01-25T07:05:22;5.10;;;2.40;;
78840;SDS011;68379;47.190;27.558;2024-01-25T07:07:54;3.50;;;1.70;;
78840;SDS011;68379;47.190;27.558;2024-01-25T07:10:26;4.00;;;2.50;;
78840;SDS011;68379;47.190;27.558;2024-01-25T07:12:58;4.60;;;2.90;;
78840;SDS011;68379;47.190;27.558;2024-01-25T07:15:29;4.90;;;3.00;;
78840;SDS011;68379;47.190;27.558;2024-01-25T07:18:01;6.40;;;2.60;;
78840;SDS011;68379;47.190;27.558;2024-01-25T07:20:33;6.50;;;3.00;;
78840;SDS011;68379;47.190;27.558;2024-01-25T07:23:05;5.50;;;3.10;;
78840;SDS011;68379;47.190;27.558;2024-01-25T07:25:36;4.10;;;2.80;;
78840;SDS011;68379;47.190;27.558;2024-01-25T07:28:08;5.90;;;3.30;;
78840;SDS011;68379;47.190;27.558;2024-01-25T07:30:39;6.60;;;3.30;;
78840;SDS011;68379;47.190;27.558;2024-01-25T07:33:11;8.40;;;3.80;;
78840;SDS011;68379;47.190;27.558;2024-01-25T07:35:43;4.90;;;3.00;;
78840;SDS011;68379;47.190;27.558;2024-01-25T07:38:16;10.00;;;3.50;;
78840;SDS011;68379;47.190;27.558;2024-01-25T07:40:48;6.80;;;3.50;;
78840;SDS011;68379;47.190;27.558;2024-01-25T07:43:21;5.10;;;2.60;;
78840;SDS011;68379;47.190;27.558;2024-01-25T07:45:53;11.00;;;4.20;;
78840;SDS011;68379;47.190;27.558;2024-01-25T07:48:24;5.70;;;3.30;;
78840;SDS011;68379;47.190;27.558;2024-01-25T07:50:56;20.80;;;4.80;;
78840;SDS011;68379;47.190;27.558;2024-01-25T07:53:28;6.20;;;3.60;;
78840;SDS011;68379;47.190;27.558;2024-01-25T07:56:00;6.20;;;4.00;;
78840;SDS011;68379;47.190;27.558;2024-01-25T07:58:33;7.30;;;4.00;;
78840;SDS011;68379;47.190;27.558;2024-01-25T08:01:05;9.00;;;4.30;;
78840;SDS011;68379;47.190;27.558;2024-01-25T08:03:37;11.80;;;4.70;;
78840;SDS011;68379;47.190;27.558;2024-01-25T08:06:09;7.90;;;4.10;;
78840;SDS011;68379;47.190;27.558;2024-01-25T08:08:41;6.90;;;4.20;;
78840;SDS011;68379;47.190;27.558;2024-01-25T08:11:12;8.90;;;4.50;;
78840;SDS011;68379;47.190;27.558;2024-01-25T08:13:46;6.70;;;3.70;;
78840;SDS011;68379;47.190;27.558;2024-01-25T08:16:18;6.80;;;3.40;;
78840;SDS011;68379;47.190;27.558;2024-01-25T08:18:49;6.70;;;3.50;;
78840;SDS011;68379;47.190;27.558;2024-01-25T08:21:21;7.50;;;3.10;;
78840;SDS011;68379;47.190;27.558;2024-01-25T08:23:52;6.70;;;3.50;;
78840;SDS011;68379;47.190;27.558;2024-01-25T08:26:24;7.90;;;3.60;;
78840;SDS011;68379;47.190;27.558;2024-01-25T08:28:55;6.10;;;3.90;;
78840;SDS011;68379;47.190;27.558;2024-01-25T08:31:27;5.70;;;3.20;;
78840;SDS011;68379;47.190;27.558;2024-01-25T08:33:58;5.90;;;3.00;;
78840;SDS011;68379;47.190;27.558;2024-01-25T08:36:30;6.90;;;2.40;;
78840;SDS011;68379;47.190;27.558;2024-01-25T08:39:03;3.40;;;1.70;;
78840;SDS011;68379;47.190;27.558;2024-01-25T08:41:37;3.70;;;1.80;;
78840;SDS011;68379;47.190;27.558;2024-01-25T08:44:10;4.90;;;2.50;;
78840;SDS011;68379;47.190;27.558;2024-01-25T08:46:42;4.10;;;2.20;;
78840;SDS011;68379;47.190;27.558;2024-01-25T08:49:13;3.50;;;1.80;;
78840;SDS011;68379;47.190;27.558;2024-01-25T08:51:45;3.40;;;1.80;;
78840;SDS011;68379;47.190;27.558;2024-01-25T08:54:17;5.10;;;2.50;;
78840;SDS011;68379;47.190;27.558;2024-01-25T08:56:48;3.90;;;1.70;;
78840;SDS011;68379;47.190;27.558;2024-01-25T08:59:20;3.90;;;2.30;;
78840;SDS011;68379;47.190;27.558;2024-01-25T09:01:52;3.80;;;1.90;;
78840;SDS011;68379;47.190;27.558;2024-01-25T09:04:24;3.20;;;2.20;;
78840;SDS011;68379;47.190;27.558;2024-01-25T09:06:55;4.40;;;2.30;;
78840;SDS011;68379;47.190;27.558;2024-01-25T09:09:27;4.80;;;2.70;;
78840;SDS011;68379;47.190;27.558;2024-01-25T09:11:59;5.50;;;2.80;;
78840;SDS011;68379;47.190;27.558;2024-01-25T09:14:30;4.70;;;2.80;;
78840;SDS011;68379;47.190;27.558;2024-01-25T09:17:02;5.80;;;2.40;;
78840;SDS011;68379;47.190;27.558;2024-01-25T09:19:34;4.70;;;2.50;;
78840;SDS011;68379;47.190;27.558;2024-01-25T09:22:06;4.70;;;2.00;;
78840;SDS011;68379;47.190;27.558;2024-01-25T09:24:38;3.50;;;1.90;;
78840;SDS011;68379;47.190;27.558;2024-01-25T09:27:09;2.90;;;1.60;;
78840;SDS011;68379;47.190;27.558;2024-01-25T09:29:42;2.90;;;1.30;;
78840;SDS011;68379;47.190;27.558;2024-01-25T09:32:14;2.90;;;1.50;;
78840;SDS011;68379;47.190;27.558;2024-01-25T09:34:45;3.20;;;1.70;;
78840;SDS011;68379;47.190;27.558;2024-01-25T09:37:17;3.50;;;1.60;;
78840;SDS011;68379;47.190;27.558;2024-01-25T09:39:51;2.20;;;1.30;;
78840;SDS011;68379;47.190;27.558;2024-01-25T09:42:23;6.50;;;1.30;;
78840;SDS011;68379;47.190;27.558;2024-01-25T09:44:55;3.50;;;1.00;;
78840;SDS011;68379;47.190;27.558;2024-01-25T09:47:27;2.20;;;1.00;;
78840;SDS011;68379;47.190;27.558;2024-01-25T09:49:58;3.10;;;0.90;;
78840;SDS011;68379;47.190;27.558;2024-01-25T09:52:30;15.70;;;2.20;;
78840;SDS011;68379;47.190;27.558;2024-01-25T09:55:05;2.00;;;0.90;;
78840;SDS011;68379;47.190;27.558;2024-01-25T09:57:41;3.10;;;1.50;;
78840;SDS011;68379;47.190;27.558;2024-01-25T10:00:19;4.00;;;1.60;;
78840;SDS011;68379;47.190;27.558;2024-01-25T10:02:50;4.00;;;1.60;;
78840;SDS011;68379;47.190;27.558;2024-01-25T10:05:22;3.30;;;1.40;;
78840;SDS011;68379;47.190;27.558;2024-01-25T10:07:54;2.60;;;1.40;;
78840;SDS011;68379;47.190;27.558;2024-01-25T10:10:31;2.30;;;1.10;;
78840;SDS011;68379;47.190;27.558;2024-01-25T10:13:04;3.80;;;1.60;;
78840;SDS011;68379;47.190;27.558;2024-01-25T10:15:40;2.20;;;1.40;;
78840;SDS011;68379;47.190;27.558;2024-01-25T10:18:14;3.10;;;1.60;;
78840;SDS011;68379;47.190;27.558;2024-01-25T10:20:46;2.90;;;1.90;;
78840;SDS011;68379;47.190;27.558;2024-01-25T10:23:18;3.20;;;2.10;;
78840;SDS011;68379;47.190;27.558;2024-01-25T10:25:50;4.00;;;2.00;;
78840;SDS011;68379;47.190;27.558;2024-01-25T10:28:23;2.80;;;1.40;;
78840;SDS011;68379;47.190;27.558;2024-01-25T10:30:57;2.40;;;1.70;;
78840;SDS011;68379;47.190;27.558;2024-01-25T10:33:30;3.60;;;1.50;;
78840;SDS011;68379;47.190;27.558;2024-01-25T10:36:06;3.70;;;1.80;;
78840;SDS011;68379;47.190;27.558;2024-01-25T10:38:40;3.70;;;1.60;;
78840;SDS011;68379;47.190;27.558;2024-01-25T10:41:14;2.90;;;1.50;;
78840;SDS011;68379;47.190;27.558;2024-01-25T10:43:46;2.40;;;1.50;;
78840;SDS011;68379;47.190;27.558;2024-01-25T10:46:19;2.60;;;1.20;;
78840;SDS011;68379;47.190;27.558;2024-01-25T10:48:51;2.70;;;1.50;;
78840;SDS011;68379;47.190;27.558;2024-01-25T10:51:23;3.00;;;1.30;;
78840;SDS011;68379;47.190;27.558;2024-01-25T10:53:55;3.00;;;1.30;;
78840;SDS011;68379;47.190;27.558;2024-01-25T10:56:28;3.50;;;1.70;;
78840;SDS011;68379;47.190;27.558;2024-01-25T10:59:00;3.80;;;1.60;;
78840;SDS011;68379;47.190;27.558;2024-01-25T11:01:33;3.60;;;1.60;;
78840;SDS011;68379;47.190;27.558;2024-01-25T11:04:11;4.30;;;1.80;;
78840;SDS011;68379;47.190;27.558;2024-01-25T11:06:45;1.80;;;1.10;;
78840;SDS011;68379;47.190;27.558;2024-01-25T11:09:18;4.70;;;2.80;;
78840;SDS011;68379;47.190;27.558;2024-01-25T11:11:53;4.80;;;2.30;;
78840;SDS011;68379;47.190;27.558;2024-01-25T11:14:28;1.70;;;1.30;;
78840;SDS011;68379;47.190;27.558;2024-01-25T11:17:14;2.60;;;1.10;;
78840;SDS011;68379;47.190;27.558;2024-01-25T11:19:49;2.20;;;1.20;;
78840;SDS011;68379;47.190;27.558;2024-01-25T11:22:22;4.00;;;1.20;;
78840;SDS011;68379;47.190;27.558;2024-01-25T11:25:12;1.90;;;0.90;;
78840;SDS011;68379;47.190;27.558;2024-01-25T11:27:49;3.60;;;1.40;;
78840;SDS011;68379;47.190;27.558;2024-01-25T11:30:21;1.80;;;0.90;;
78840;SDS011;68379;47.190;27.558;2024-01-25T11:32:53;2.60;;;0.80;;
78840;SDS011;68379;47.190;27.558;2024-01-25T11:35:26;2.10;;;1.00;;
78840;SDS011;68379;47.190;27.558;2024-01-25T11:37:58;1.50;;;1.00;;
78840;SDS011;68379;47.190;27.558;2024-01-25T11:40:30;3.20;;;1.20;;
78840;SDS011;68379;47.190;27.558;2024-01-25T11:43:04;18.00;;;2.90;;
78840;SDS011;68379;47.190;27.558;2024-01-25T11:45:40;4.40;;;1.10;;
78840;SDS011;68379;47.190;27.558;2024-01-25T11:48:12;1.80;;;1.10;;
78840;SDS011;68379;47.190;27.558;2024-01-25T11:50:44;1.80;;;1.00;;
78840;SDS011;68379;47.190;27.558;2024-01-25T11:53:16;1.80;;;0.80;;
78840;SDS011;68379;47.190;27.558;2024-01-25T11:55:48;2.90;;;1.00;;
78840;SDS011;68379;47.190;27.558;2024-01-25T11:58:20;2.70;;;1.10;;
78840;SDS011;68379;47.190;27.558;2024-01-25T12:00:53;2.20;;;0.70;;
78840;SDS011;68379;47.190;27.558;2024-01-25T12:03:25;2.40;;;0.90;;
78840;SDS011;68379;47.190;27.558;2024-01-25T12:05:57;2.60;;;0.90;;
78840;SDS011;68379;47.190;27.558;2024-01-25T12:08:29;1.60;;;0.80;;
78840;SDS011;68379;47.190;27.558;2024-01-25T12:11:04;1.20;;;0.60;;
78840;SDS011;68379;47.190;27.558;2024-01-25T12:13:38;2.10;;;0.80;;
78840;SDS011;68379;47.190;27.558;2024-01-25T12:16:12;1.80;;;0.60;;
78840;SDS011;68379;47.190;27.558;2024-01-25T12:18:45;2.50;;;0.90;;
78840;SDS011;68379;47.190;27.558;2024-01-25T12:21:17;2.70;;;1.20;;
78840;SDS011;68379;47.190;27.558;2024-01-25T12:23:49;2.50;;;1.00;;
78840;SDS011;68379;47.190;27.558;2024-01-25T12:26:20;2.60;;;0.80;;
78840;SDS011;68379;47.190;27.558;2024-01-25T12:28:52;1.60;;;0.90;;
78840;SDS011;68379;47.190;27.558;2024-01-25T12:31:24;1.80;;;1.00;;
78840;SDS011;68379;47.190;27.558;2024-01-25T12:33:56;1.90;;;0.80;;
78840;SDS011;68379;47.190;27.558;2024-01-25T12:36:28;2.50;;;0.80;;
78840;SDS011;68379;47.190;27.558;2024-01-25T12:39:01;2.40;;;1.00;;
78840;SDS011;68379;47.190;27.558;2024-01-25T12:41:35;2.50;;;1.00;;
78840;SDS011;68379;47.190;27.558;2024-01-25T12:44:07;4.40;;;1.20;;
78840;SDS011;68379;47.190;27.558;2024-01-25T12:46:38;2.40;;;1.30;;
78840;SDS011;68379;47.190;27.558;2024-01-25T12:49:10;1.70;;;1.00;;
78840;SDS011;68379;47.190;27.558;2024-01-25T12:51:42;3.60;;;1.80;;
78840;SDS011;68379;47.190;27.558;2024-01-25T12:54:14;4.20;;;1.90;;
78840;SDS011;68379;47.190;27.558;2024-01-25T12:56:46;6.20;;;3.40;;
78840;SDS011;68379;47.190;27.558;2024-01-25T12:59:18;8.40;;;3.40;;
78840;SDS011;68379;47.190;27.558;2024-01-25T13:01:50;6.40;;;3.60;;
78840;SDS011;68379;47.190;27.558;2024-01-25T13:04:22;6.10;;;3.50;;
78840;SDS011;68379;47.190;27.558;2024-01-25T13:06:54;6.80;;;3.50;;
78840;SDS011;68379;47.190;27.558;2024-01-25T13:09:26;7.80;;;4.10;;
78840;SDS011;68379;47.190;27.558;2024-01-25T13:12:01;6.20;;;4.10;;
78840;SDS011;68379;47.190;27.558;2024-01-25T13:14:33;8.90;;;4.40;;
78840;SDS011;68379;47.190;27.558;2024-01-25T13:17:05;7.90;;;4.90;;
78840;SDS011;68379;47.190;27.558;2024-01-25T13:19:36;8.60;;;4.30;;
78840;SDS011;68379;47.190;27.558;2024-01-25T13:22:08;8.20;;;4.70;;
78840;SDS011;68379;47.190;27.558;2024-01-25T13:24:40;9.20;;;4.20;;
78840;SDS011;68379;47.190;27.558;2024-01-25T13:27:11;8.00;;;4.90;;
78840;SDS011;68379;47.190;27.558;2024-01-25T13:29:43;8.60;;;4.40;;
78840;SDS011;68379;47.190;27.558;2024-01-25T13:32:15;6.30;;;3.70;;
78840;SDS011;68379;47.190;27.558;2024-01-25T13:34:47;6.70;;;3.90;;
78840;SDS011;68379;47.190;27.558;2024-01-25T13:37:18;5.20;;;2.60;;
78840;SDS011;68379;47.190;27.558;2024-01-25T13:39:50;5.90;;;2.50;;
78840;SDS011;68379;47.190;27.558;2024-01-25T13:42:22;6.30;;;3.10;;
78840;SDS011;68379;47.190;27.558;2024-01-25T13:44:53;6.00;;;3.20;;
78840;SDS011;68379;47.190;27.558;2024-01-25T13:47:25;4.40;;;2.40;;
78840;SDS011;68379;47.190;27.558;2024-01-25T13:49:57;6.40;;;3.20;;
78840;SDS011;68379;47.190;27.558;2024-01-25T13:52:29;4.60;;;2.20;;
78840;SDS011;68379;47.190;27.558;2024-01-25T13:55:00;3.80;;;1.70;;
78840;SDS011;68379;47.190;27.558;2024-01-25T13:57:32;3.70;;;1.70;;
78840;SDS011;68379;47.190;27.558;2024-01-25T14:00:04;3.10;;;1.40;;
78840;SDS011;68379;47.190;27.558;2024-01-25T14:02:39;3.30;;;1.40;;
78840;SDS011;68379;47.190;27.558;2024-01-25T14:05:13;3.00;;;1.40;;
78840;SDS011;68379;47.190;27.558;2024-01-25T14:07:45;4.10;;;1.70;;
78840;SDS011;68379;47.190;27.558;2024-01-25T14:10:17;3.30;;;1.60;;
78840;SDS011;68379;47.190;27.558;2024-01-25T14:12:48;4.20;;;1.70;;
78840;SDS011;68379;47.190;27.558;2024-01-25T14:15:21;2.50;;;1.30;;
78840;SDS011;68379;47.190;27.558;2024-01-25T14:17:52;3.30;;;1.60;;
78840;SDS011;68379;47.190;27.558;2024-01-25T14:20:24;3.00;;;1.40;;
78840;SDS011;68379;47.190;27.558;2024-01-25T14:22:56;3.40;;;1.60;;
78840;SDS011;68379;47.190;27.558;2024-01-25T14:25:28;5.20;;;2.20;;
78840;SDS011;68379;47.190;27.558;2024-01-25T14:27:59;3.50;;;2.10;;
78840;SDS011;68379;47.190;27.558;2024-01-25T14:30:31;4.50;;;2.10;;
78840;SDS011;68379;47.190;27.558;2024-01-25T14:33:03;3.80;;;2.00;;
78840;SDS011;68379;47.190;27.558;2024-01-25T14:35:34;3.20;;;1.90;;
78840;SDS011;68379;47.190;27.558;2024-01-25T14:38:08;2.70;;;1.70;;
78840;SDS011;68379;47.190;27.558;2024-01-25T14:40:39;1.70;;;0.90;;
78840;SDS011;68379;47.190;27.558;2024-01-25T14:43:11;2.60;;;1.20;;
78840;SDS011;68379;47.190;27.558;2024-01-25T14:45:44;3.50;;;1.60;;
78840;SDS011;68379;47.190;27.558;2024-01-25T14:48:15;2.90;;;1.40;;
78840;SDS011;68379;47.190;27.558;2024-01-25T14:50:47;4.60;;;1.50;;
78840;SDS011;68379;47.190;27.558;2024-01-25T14:53:18;3.40;;;1.30;;
78840;SDS011;68379;47.190;27.558;2024-01-25T14:55:50;2.90;;;1.00;;
78840;SDS011;68379;47.190;27.558;2024-01-25T14:58:21;5.80;;;1.30;;
78840;SDS011;68379;47.190;27.558;2024-01-25T15:00:53;3.00;;;1.20;;
78840;SDS011;68379;47.190;27.558;2024-01-25T15:03:25;2.40;;;0.90;;
78840;SDS011;68379;47.190;27.558;2024-01-25T15:05:56;2.00;;;1.00;;
78840;SDS011;68379;47.190;27.558;2024-01-25T15:08:29;2.30;;;1.10;;
78840;SDS011;68379;47.190;27.558;2024-01-25T15:11:00;2.50;;;0.80;;
78840;SDS011;68379;47.190;27.558;2024-01-25T15:13:32;1.90;;;0.80;;
78840;SDS011;68379;47.190;27.558;2024-01-25T15:16:04;2.50;;;1.00;;
78840;SDS011;68379;47.190;27.558;2024-01-25T15:18:36;3.00;;;1.20;;
78840;SDS011;68379;47.190;27.558;2024-01-25T15:21:08;1.70;;;1.10;;
78840;SDS011;68379;47.190;27.558;2024-01-25T15:23:40;2.80;;;1.20;;